createdAt,value
2022-08-27T00:00:57.960Z,2.80
2022-08-27T00:03:27.987Z,2.83
2022-08-27T00:05:56.950Z,2.53
2022-08-27T00:08:24.104Z,3.00
2022-08-27T00:10:54.210Z,2.23
2022-08-27T00:13:22.236Z,2.10
2022-08-27T00:15:52.436Z,3.10
2022-08-27T00:18:22.604Z,3.20
2022-08-27T00:20:53.205Z,2.00
2022-08-27T00:23:31.825Z,2.13
2022-08-27T00:26:01.985Z,5.23
2022-08-27T00:28:29.588Z,2.33
2022-08-27T00:31:00.045Z,1.63
2022-08-27T00:33:31.650Z,1.97
2022-08-27T00:36:00.787Z,1.77
2022-08-27T00:38:30.573Z,2.73
2022-08-27T00:41:01.311Z,3.53
2022-08-27T00:43:45.416Z,2.60
2022-08-27T00:46:20.252Z,5.17
2022-08-27T00:48:49.440Z,3.07
2022-08-27T00:51:21.541Z,2.20
2022-08-27T00:53:50.287Z,3.00
2022-08-27T00:56:22.203Z,5.63
2022-08-27T00:58:52.585Z,2.93
2022-08-27T01:01:27.996Z,2.57
2022-08-27T01:04:00.779Z,2.40
2022-08-27T01:06:32.489Z,2.97
2022-08-27T01:09:12.187Z,2.13
2022-08-27T01:11:42.993Z,2.30
2022-08-27T01:14:13.431Z,3.27
2022-08-27T01:16:46.270Z,5.30
2022-08-27T01:19:30.751Z,3.97
2022-08-27T01:22:33.405Z,1.97
2022-08-27T01:25:11.160Z,2.83
2022-08-27T01:27:43.137Z,3.53
2022-08-27T01:30:19.161Z,3.33
2022-08-27T01:33:14.561Z,4.03
2022-08-27T01:35:46.180Z,2.27
2022-08-27T01:38:30.470Z,3.07
2022-08-27T01:41:01.632Z,3.03
2022-08-27T01:43:38.736Z,2.37
2022-08-27T01:46:12.177Z,3.83
2022-08-27T01:48:39.087Z,1.60
2022-08-27T01:51:09.916Z,2.70
2022-08-27T01:53:39.957Z,3.27
2022-08-27T01:56:11.448Z,2.97
2022-08-27T01:58:41.821Z,3.07
2022-08-27T02:01:13.127Z,1.53
2022-08-27T02:03:43.325Z,3.47
2022-08-27T02:06:14.314Z,2.90
2022-08-27T02:08:44.398Z,2.97
2022-08-27T02:11:14.573Z,1.93
2022-08-27T02:13:44.688Z,1.93
2022-08-27T02:16:12.169Z,2.47
2022-08-27T02:18:41.839Z,2.80
2022-08-27T02:21:14.885Z,3.30
2022-08-27T02:23:45.523Z,2.73
2022-08-27T02:26:15.607Z,1.90
2022-08-27T02:28:48.553Z,3.57
2022-08-27T02:31:18.679Z,3.83
2022-08-27T02:33:48.964Z,3.60
2022-08-27T02:36:19.448Z,4.57
2022-08-27T02:38:46.944Z,2.60
2022-08-27T02:41:16.701Z,2.53
2022-08-27T02:43:45.838Z,2.90
2022-08-27T02:46:13.449Z,3.07
2022-08-27T02:48:40.958Z,2.97
2022-08-27T02:51:11.107Z,3.13
2022-08-27T02:53:41.173Z,3.57
2022-08-27T02:56:11.861Z,5.37
2022-08-27T02:58:41.968Z,3.77
2022-08-27T03:01:13.888Z,2.27
2022-08-27T03:03:47.332Z,2.87
2022-08-27T03:06:17.438Z,2.03
2022-08-27T03:08:52.373Z,2.37
2022-08-27T03:11:24.159Z,2.80
2022-08-27T03:13:54.381Z,2.80
2022-08-27T03:16:23.434Z,1.67
2022-08-27T03:18:51.524Z,2.43
2022-08-27T03:21:21.987Z,2.70
2022-08-27T03:23:49.244Z,2.03
2022-08-27T03:26:17.077Z,2.00
2022-08-27T03:28:44.462Z,3.20
2022-08-27T03:31:27.886Z,3.13
2022-08-27T03:33:59.698Z,3.60
2022-08-27T03:36:28.376Z,2.90
2022-08-27T03:38:59.311Z,2.37
2022-08-27T03:41:40.033Z,1.93
2022-08-27T03:44:21.884Z,2.77
2022-08-27T03:46:52.926Z,2.60
2022-08-27T03:49:21.558Z,2.23
2022-08-27T03:51:52.705Z,2.50
2022-08-27T03:54:23.164Z,4.03
2022-08-27T03:56:53.170Z,4.23
2022-08-27T03:59:20.269Z,3.47
2022-08-27T04:01:52.359Z,2.57
2022-08-27T04:04:19.626Z,3.10
2022-08-27T04:06:46.591Z,5.30
2022-08-27T04:09:17.093Z,2.90
2022-08-27T04:11:47.832Z,4.77
2022-08-27T04:14:27.102Z,2.57
2022-08-27T04:16:57.160Z,4.63
2022-08-27T04:19:35.276Z,4.23
2022-08-27T04:22:08.053Z,2.93
2022-08-27T04:24:38.466Z,4.70
2022-08-27T04:27:08.575Z,2.87
2022-08-27T04:30:00.907Z,2.70
2022-08-27T04:32:30.998Z,5.30
2022-08-27T04:35:04.611Z,3.50
2022-08-27T04:37:34.963Z,4.30
2022-08-27T04:40:05.468Z,2.93
2022-08-27T04:42:35.671Z,4.10
2022-08-27T04:45:06.174Z,3.93
2022-08-27T04:47:39.123Z,3.93
2022-08-27T04:50:12.330Z,3.60
2022-08-27T04:52:44.381Z,3.50
2022-08-27T04:55:14.364Z,3.13
2022-08-27T04:57:42.342Z,3.60
2022-08-27T05:00:09.916Z,3.67
2022-08-27T05:02:39.900Z,2.70
2022-08-27T05:05:14.188Z,3.53
2022-08-27T05:07:46.252Z,3.50
2022-08-27T05:10:15.261Z,2.90
2022-08-27T05:12:45.295Z,6.20
2022-08-27T05:15:18.583Z,4.60
2022-08-27T05:17:48.565Z,4.20
2022-08-27T05:20:16.500Z,4.83
2022-08-27T05:22:46.868Z,3.97
2022-08-27T05:25:17.121Z,3.07
2022-08-27T05:27:47.388Z,5.23
2022-08-27T05:30:17.583Z,3.83
2022-08-27T05:32:44.741Z,4.37
2022-08-27T05:35:15.156Z,3.33
2022-08-27T05:37:42.927Z,3.60
2022-08-27T05:40:16.020Z,3.37
2022-08-27T05:42:48.287Z,5.13
2022-08-27T05:45:21.316Z,4.23
2022-08-27T05:47:51.473Z,3.50
2022-08-27T05:50:31.558Z,5.10
2022-08-27T05:53:02.340Z,3.93
2022-08-27T05:55:29.323Z,7.93
2022-08-27T05:57:59.317Z,5.43
2022-08-27T06:01:04.197Z,5.27
2022-08-27T06:03:37.936Z,3.43
2022-08-27T06:06:07.610Z,4.50
2022-08-27T06:08:35.019Z,4.10
2022-08-27T06:11:05.443Z,4.87
2022-08-27T06:13:35.523Z,3.50
2022-08-27T06:16:10.188Z,3.90
2022-08-27T06:18:41.834Z,6.40
2022-08-27T06:21:09.412Z,4.07
2022-08-27T06:23:40.108Z,4.67
2022-08-27T06:26:11.751Z,4.33
2022-08-27T06:28:42.049Z,4.93
2022-08-27T06:31:20.651Z,5.30
2022-08-27T06:33:52.011Z,4.17
2022-08-27T06:36:23.922Z,4.90
2022-08-27T06:38:57.218Z,4.40
2022-08-27T06:41:28.039Z,3.30
2022-08-27T06:43:58.572Z,4.03
2022-08-27T06:46:27.727Z,2.97
2022-08-27T06:48:59.475Z,2.80
2022-08-27T06:51:34.364Z,2.80
2022-08-27T06:54:07.255Z,2.93
2022-08-27T06:56:37.768Z,7.60
2022-08-27T06:59:12.120Z,2.90
2022-08-27T07:02:02.122Z,4.80
2022-08-27T07:04:33.005Z,3.87
2022-08-27T07:07:04.373Z,3.53
2022-08-27T07:09:34.614Z,3.43
2022-08-27T07:12:05.626Z,4.30
2022-08-27T07:14:37.830Z,3.83
2022-08-27T07:17:06.976Z,2.80
2022-08-27T07:19:41.508Z,3.17
2022-08-27T07:22:08.919Z,2.13
2022-08-27T07:24:39.202Z,1.90
2022-08-27T07:27:12.984Z,1.57
2022-08-27T07:29:41.607Z,2.27
2022-08-27T07:32:10.635Z,3.53
2022-08-27T07:34:40.657Z,3.10
2022-08-27T07:37:10.833Z,1.43
2022-08-27T07:39:39.910Z,1.97
2022-08-27T07:42:27.316Z,1.33
2022-08-27T07:44:57.320Z,3.13
2022-08-27T07:47:25.358Z,2.00
2022-08-27T07:49:55.463Z,1.33
2022-08-27T07:52:26.471Z,2.40
2022-08-27T07:55:00.489Z,1.33
2022-08-27T07:57:27.847Z,2.70
2022-08-27T07:59:55.098Z,1.87
2022-08-27T08:02:28.337Z,2.67
2022-08-27T08:04:55.607Z,2.43
2022-08-27T08:07:25.628Z,2.10
2022-08-27T08:09:59.835Z,1.80
2022-08-27T08:12:42.433Z,3.07
2022-08-27T08:15:19.295Z,3.27
2022-08-27T08:17:46.343Z,2.30
2022-08-27T08:20:24.035Z,1.30
2022-08-27T08:23:03.729Z,1.53
2022-08-27T08:25:38.424Z,1.83
2022-08-27T08:28:06.694Z,2.07
2022-08-27T08:30:35.735Z,3.40
2022-08-27T08:33:03.061Z,2.50
2022-08-27T08:35:34.945Z,1.53
2022-08-27T08:38:08.540Z,2.80
2022-08-27T08:40:49.727Z,2.13
2022-08-27T08:43:36.569Z,2.23
2022-08-27T08:46:25.679Z,2.50
2022-08-27T08:48:59.339Z,2.37
2022-08-27T08:51:40.249Z,2.00
2022-08-27T08:54:23.269Z,3.07
2022-08-27T08:57:20.301Z,2.47
2022-08-27T09:00:13.972Z,2.77
2022-08-27T09:02:53.746Z,2.10
2022-08-27T09:05:27.395Z,1.70
2022-08-27T09:08:43.173Z,1.70
2022-08-27T09:11:30.149Z,2.77
2022-08-27T09:14:03.035Z,2.10
2022-08-27T09:16:33.199Z,1.47
2022-08-27T09:19:05.989Z,1.63
2022-08-27T09:21:56.775Z,1.80
2022-08-27T09:24:52.977Z,1.83
2022-08-27T09:27:23.111Z,1.70
2022-08-27T09:29:54.652Z,3.40
2022-08-27T09:32:32.523Z,1.63
2022-08-27T09:35:07.638Z,2.23
2022-08-27T09:37:54.644Z,2.00
2022-08-27T09:40:48.569Z,3.57
2022-08-27T09:43:34.059Z,1.63
2022-08-27T09:46:29.607Z,2.00
2022-08-27T09:49:17.616Z,2.37
2022-08-27T09:52:27.658Z,2.63
2022-08-27T09:54:56.715Z,1.97
2022-08-27T09:57:34.476Z,2.97
2022-08-27T10:00:09.893Z,2.35
2022-08-27T10:02:37.188Z,2.67
2022-08-27T10:05:42.771Z,1.92
2022-08-27T10:08:49.102Z,1.85
2022-08-27T10:11:28.072Z,2.58
2022-08-27T10:14:11.550Z,4.40
2022-08-27T10:17:11.720Z,3.28
2022-08-27T10:20:29.528Z,2.58
2022-08-27T10:23:04.738Z,1.90
2022-08-27T10:25:59.115Z,3.75
2022-08-27T10:28:58.318Z,5.72
2022-08-27T10:31:49.055Z,4.25
2022-08-27T10:35:03.584Z,3.13
2022-08-27T10:37:53.082Z,2.38
2022-08-27T10:40:33.559Z,3.60
2022-08-27T10:43:28.291Z,4.03
2022-08-27T10:46:10.510Z,3.25
2022-08-27T10:49:05.664Z,4.20
2022-08-27T10:52:12.541Z,3.67
2022-08-27T10:54:53.550Z,3.30
2022-08-27T10:58:00.848Z,2.88
2022-08-27T11:00:58.709Z,3.80
2022-08-27T11:03:52.173Z,3.50
2022-08-27T11:06:54.109Z,4.90
2022-08-27T11:09:36.200Z,4.60
2022-08-27T11:12:17.626Z,4.38
2022-08-27T11:15:22.863Z,8.18
2022-08-27T11:18:42.984Z,10.60
2022-08-27T11:21:49.561Z,3.38
2022-08-27T11:24:26.077Z,5.93
2022-08-27T11:27:00.155Z,3.45
2022-08-27T11:29:35.130Z,10.82
2022-08-27T11:32:21.425Z,4.10
2022-08-27T11:35:02.187Z,6.35
2022-08-27T11:37:35.088Z,3.42
2022-08-27T11:40:23.169Z,5.72
2022-08-27T11:43:07.490Z,4.30
2022-08-27T11:45:38.919Z,4.28
2022-08-27T11:48:21.394Z,3.78
2022-08-27T11:51:11.732Z,5.60
2022-08-27T11:53:52.225Z,4.28
2022-08-27T11:57:12.910Z,6.40
2022-08-27T11:59:43.690Z,2.40
2022-08-27T12:02:18.403Z,3.90
2022-08-27T12:04:49.609Z,5.07
2022-08-27T12:07:21.751Z,3.88
2022-08-27T12:10:07.591Z,4.03
2022-08-27T12:12:53.186Z,3.03
2022-08-27T12:15:35.571Z,3.70
2022-08-27T12:18:14.887Z,2.13
2022-08-27T12:21:03.623Z,3.75
2022-08-27T12:23:44.402Z,1.77
2022-08-27T12:26:36.032Z,3.58
2022-08-27T12:29:29.418Z,4.35
2022-08-27T12:32:24.944Z,2.92
2022-08-27T12:35:27.131Z,2.60
2022-08-27T12:37:57.890Z,4.07
2022-08-27T12:40:27.198Z,5.22
2022-08-27T12:43:11.384Z,1.85
2022-08-27T12:46:17.215Z,2.75
2022-08-27T12:48:55.376Z,2.55
2022-08-27T12:51:34.757Z,2.05
2022-08-27T12:54:30.097Z,2.63
2022-08-27T12:57:15.918Z,1.45
2022-08-27T12:59:52.919Z,3.72
2022-08-27T13:02:34.979Z,2.42
2022-08-27T13:05:10.054Z,3.30
2022-08-27T13:07:43.919Z,3.90
2022-08-27T13:10:21.132Z,1.63
2022-08-27T13:12:59.583Z,3.38
2022-08-27T13:15:29.760Z,3.22
2022-08-27T13:18:02.458Z,3.75
2022-08-27T13:20:37.473Z,3.53
2022-08-27T13:23:04.485Z,4.97
2022-08-27T13:25:34.632Z,2.38
2022-08-27T13:28:12.702Z,1.50
2022-08-27T13:30:45.074Z,3.03
2022-08-27T13:33:19.844Z,3.97
2022-08-27T13:35:51.484Z,3.80
2022-08-27T13:38:22.281Z,3.15
2022-08-27T13:40:59.803Z,2.72
2022-08-27T13:43:42.992Z,3.45
2022-08-27T13:46:15.194Z,3.60
2022-08-27T13:48:44.670Z,3.55
2022-08-27T13:51:17.014Z,3.35
2022-08-27T13:54:06.954Z,3.03
2022-08-27T13:56:38.369Z,2.22
2022-08-27T13:59:13.492Z,2.53
2022-08-27T14:02:04.898Z,5.13
2022-08-27T14:04:40.856Z,3.28
2022-08-27T14:07:20.852Z,3.10
2022-08-27T14:10:02.990Z,2.72
2022-08-27T14:12:39.184Z,2.47
2022-08-27T14:15:38.532Z,4.03
2022-08-27T14:18:47.989Z,2.70
2022-08-27T14:21:15.952Z,2.90
2022-08-27T14:23:44.089Z,3.75
2022-08-27T14:26:14.849Z,2.25
2022-08-27T14:28:46.272Z,4.28
2022-08-27T14:31:16.999Z,2.85
2022-08-27T14:33:47.683Z,3.22
2022-08-27T14:36:15.984Z,2.72
2022-08-27T14:38:51.539Z,3.03
2022-08-27T14:41:21.970Z,2.92
2022-08-27T14:43:52.215Z,4.50
2022-08-27T14:46:26.462Z,5.35
2022-08-27T14:48:56.268Z,3.03
2022-08-27T14:51:28.970Z,6.38
2022-08-27T14:53:59.249Z,4.22
2022-08-27T14:56:27.305Z,2.75
2022-08-27T14:58:55.657Z,2.33
2022-08-27T15:01:26.978Z,3.38
2022-08-27T15:03:57.355Z,4.55
2022-08-27T15:06:25.365Z,3.35
2022-08-27T15:08:56.725Z,2.25
2022-08-27T15:11:48.292Z,3.00
2022-08-27T15:14:27.412Z,4.28
2022-08-27T15:16:58.335Z,3.40
2022-08-27T15:19:29.708Z,3.67
2022-08-27T15:22:16.756Z,12.47
2022-08-27T15:24:48.021Z,5.40
2022-08-27T15:27:17.270Z,2.67
2022-08-27T15:29:45.118Z,3.33
2022-08-27T15:32:23.012Z,4.43
2022-08-27T15:34:59.248Z,3.43
2022-08-27T15:37:33.579Z,3.70
2022-08-27T15:40:02.360Z,7.10
2022-08-27T15:42:32.520Z,8.43
2022-08-27T15:45:02.999Z,2.67
2022-08-27T15:47:32.043Z,6.77
2022-08-27T15:49:59.940Z,2.13
2022-08-27T15:52:40.311Z,3.33
2022-08-27T15:55:37.159Z,2.57
2022-08-27T15:58:05.200Z,4.97
2022-08-27T16:00:37.542Z,4.17
2022-08-27T16:03:09.450Z,6.90
2022-08-27T16:05:41.586Z,3.60
2022-08-27T16:08:12.226Z,6.30
2022-08-27T16:10:39.311Z,3.20
2022-08-27T16:13:09.639Z,3.77
2022-08-27T16:15:40.953Z,4.03
2022-08-27T16:18:13.076Z,5.70
2022-08-27T16:20:42.525Z,4.37
2022-08-27T16:23:13.881Z,8.30
2022-08-27T16:25:42.363Z,15.40
2022-08-27T16:28:12.583Z,11.37
2022-08-27T16:30:41.468Z,16.00
2022-08-27T16:33:12.304Z,7.63
2022-08-27T16:35:42.663Z,8.93
2022-08-27T16:38:10.473Z,13.10
2022-08-27T16:40:43.994Z,7.93
2022-08-27T16:43:16.792Z,2.90
2022-08-27T16:45:46.705Z,7.73
2022-08-27T16:48:32.608Z,14.93
2022-08-27T16:51:01.301Z,4.77
2022-08-27T16:53:30.536Z,8.23
2022-08-27T16:56:02.830Z,9.70
2022-08-27T16:58:33.210Z,13.57
2022-08-27T17:01:06.802Z,7.23
2022-08-27T17:04:06.778Z,13.43
2022-08-27T17:06:34.561Z,8.33
2022-08-27T17:09:07.948Z,13.43
2022-08-27T17:11:43.550Z,9.33
2022-08-27T17:14:13.608Z,8.53
2022-08-27T17:16:44.064Z,16.23
2022-08-27T17:19:17.166Z,14.30
2022-08-27T17:21:45.531Z,11.90
2022-08-27T17:24:13.495Z,11.40
2022-08-27T17:26:43.520Z,9.73
2022-08-27T17:29:12.773Z,10.40
2022-08-27T17:31:46.213Z,7.93
2022-08-27T17:34:29.105Z,9.30
2022-08-27T17:37:00.668Z,11.93
2022-08-27T17:39:34.807Z,14.70
2022-08-27T17:42:04.768Z,12.37
2022-08-27T17:44:36.951Z,18.77
2022-08-27T17:47:09.175Z,9.20
2022-08-27T17:49:36.980Z,10.00
2022-08-27T17:52:13.559Z,14.47
2022-08-27T17:54:56.340Z,9.70
2022-08-27T17:57:30.204Z,9.27
2022-08-27T18:00:13.523Z,7.40
2022-08-27T18:02:49.285Z,10.20
2022-08-27T18:05:25.438Z,9.43
2022-08-27T18:07:54.530Z,8.37
2022-08-27T18:10:31.455Z,10.23
2022-08-27T18:12:59.527Z,14.17
2022-08-27T18:15:36.176Z,13.00
2022-08-27T18:18:12.569Z,15.40
2022-08-27T18:20:40.683Z,12.27
2022-08-27T18:23:30.024Z,10.87
2022-08-27T18:26:00.341Z,12.17
2022-08-27T18:28:31.314Z,15.30
2022-08-27T18:31:05.722Z,10.30
2022-08-27T18:33:35.501Z,9.63
2022-08-27T18:36:06.061Z,11.97
2022-08-27T18:38:33.084Z,3.93
2022-08-27T18:41:03.495Z,10.23
2022-08-27T18:43:34.906Z,9.87
2022-08-27T18:46:03.407Z,11.73
2022-08-27T18:48:34.023Z,7.77
2022-08-27T18:51:04.469Z,9.03
2022-08-27T18:53:34.900Z,15.53
2022-08-27T18:56:02.844Z,12.07
2022-08-27T18:58:29.998Z,14.73
2022-08-27T19:01:02.145Z,12.13
2022-08-27T19:03:33.497Z,15.87
2022-08-27T19:06:00.989Z,9.43
2022-08-27T19:08:30.872Z,6.40
2022-08-27T19:10:58.230Z,11.30
2022-08-27T19:13:26.102Z,9.03
2022-08-27T19:15:57.819Z,10.97
2022-08-27T19:18:27.645Z,11.30
2022-08-27T19:20:59.876Z,6.20
2022-08-27T19:23:30.807Z,13.53
2022-08-27T19:26:00.211Z,10.60
2022-08-27T19:28:37.460Z,12.47
2022-08-27T19:31:05.043Z,16.27
2022-08-27T19:33:33.260Z,27.53
2022-08-27T19:36:00.287Z,11.47
2022-08-27T19:38:31.709Z,16.67
2022-08-27T19:41:03.945Z,13.70
2022-08-27T19:43:31.562Z,11.73
2022-08-27T19:46:00.915Z,17.93
2022-08-27T19:48:28.386Z,12.97
2022-08-27T19:50:56.044Z,10.40
2022-08-27T19:53:24.177Z,10.53
2022-08-27T19:55:51.726Z,7.13
2022-08-27T19:58:19.614Z,11.20
2022-08-27T20:00:47.189Z,15.17
2022-08-27T20:03:14.291Z,9.60
2022-08-27T20:05:41.600Z,10.83
2022-08-27T20:08:08.648Z,10.20
2022-08-27T20:10:39.248Z,10.17
2022-08-27T20:13:10.296Z,11.83
2022-08-27T20:15:41.942Z,14.63
2022-08-27T20:18:15.683Z,9.20
2022-08-27T20:20:46.387Z,9.53
2022-08-27T20:23:16.461Z,14.87
2022-08-27T20:25:44.675Z,9.53
2022-08-27T20:28:37.813Z,10.33
2022-08-27T20:31:03.835Z,10.47
2022-08-27T20:33:30.843Z,17.13
2022-08-27T20:35:59.463Z,6.30
2022-08-27T20:38:29.781Z,8.77
2022-08-27T20:41:02.913Z,11.80
2022-08-27T20:43:30.103Z,10.50
2022-08-27T20:46:00.615Z,12.77
2022-08-27T20:48:28.522Z,8.43
2022-08-27T20:50:57.068Z,10.77
2022-08-27T20:53:23.947Z,21.43
2022-08-27T20:55:50.972Z,10.57
2022-08-27T20:58:36.228Z,16.83
2022-08-27T21:01:03.202Z,12.03
2022-08-27T21:03:30.247Z,7.73
2022-08-27T21:05:57.228Z,20.77
2022-08-27T21:08:24.281Z,11.33
2022-08-27T21:10:59.406Z,9.50
2022-08-27T21:13:28.452Z,7.17
2022-08-27T21:15:56.307Z,9.60
2022-08-27T21:18:24.343Z,9.27
2022-08-27T21:20:57.329Z,12.83
2022-08-27T21:23:25.390Z,13.63
2022-08-27T21:25:52.295Z,11.33
2022-08-27T21:28:19.272Z,7.23
2022-08-27T21:30:46.237Z,10.33
2022-08-27T21:33:13.172Z,10.33
2022-08-27T21:35:40.133Z,6.10
2022-08-27T21:38:07.053Z,5.93
2022-08-27T21:40:40.115Z,8.03
2022-08-27T21:43:08.315Z,8.67
2022-08-27T21:45:36.416Z,7.17
2022-08-27T21:48:03.699Z,7.73
2022-08-27T21:50:30.655Z,3.60
2022-08-27T21:52:57.567Z,6.50
2022-08-27T21:55:24.661Z,4.23
2022-08-27T21:57:51.654Z,6.30
2022-08-27T22:00:32.728Z,4.30
2022-08-27T22:02:59.857Z,6.70
2022-08-27T22:05:26.970Z,8.97
2022-08-27T22:07:54.193Z,7.60
2022-08-27T22:10:21.686Z,9.77
2022-08-27T22:12:48.665Z,10.50
2022-08-27T22:15:15.808Z,14.23
2022-08-27T22:17:42.829Z,9.40
2022-08-27T22:20:10.918Z,12.97
2022-08-27T22:22:38.348Z,9.83
2022-08-27T22:25:06.363Z,11.17
2022-08-27T22:27:33.460Z,9.70
2022-08-27T22:30:00.672Z,7.93
2022-08-27T22:32:27.667Z,12.53
2022-08-27T22:34:54.658Z,8.30
2022-08-27T22:37:21.665Z,6.57
2022-08-27T22:39:48.579Z,4.67
2022-08-27T22:42:17.720Z,6.53
2022-08-27T22:44:45.546Z,12.93
2022-08-27T22:47:14.520Z,4.73
2022-08-27T22:49:42.868Z,5.60
2022-08-27T22:52:09.991Z,9.50
2022-08-27T22:54:36.963Z,12.70
2022-08-27T22:57:03.972Z,7.30
2022-08-27T22:59:31.123Z,7.13
2022-08-27T23:01:59.489Z,10.07
2022-08-27T23:04:44.903Z,8.87
2022-08-27T23:07:13.899Z,10.37
2022-08-27T23:09:40.800Z,7.63
2022-08-27T23:12:08.887Z,7.83
2022-08-27T23:14:36.106Z,8.17
2022-08-27T23:17:03.427Z,6.17
2022-08-27T23:19:30.987Z,9.27
2022-08-27T23:21:58.823Z,7.17
2022-08-27T23:24:26.368Z,6.47
2022-08-27T23:27:11.700Z,7.20
2022-08-27T23:29:38.753Z,8.70
2022-08-27T23:32:05.705Z,11.63
2022-08-27T23:34:33.293Z,9.93
2022-08-27T23:37:00.259Z,6.63
2022-08-27T23:39:27.252Z,6.43
2022-08-27T23:41:54.251Z,10.00
2022-08-27T23:44:21.662Z,7.37
2022-08-27T23:46:48.725Z,6.40
2022-08-27T23:49:17.518Z,6.00
2022-08-27T23:51:44.406Z,9.23
2022-08-27T23:54:11.439Z,10.13
2022-08-27T23:56:38.399Z,8.27
2022-08-27T23:59:05.758Z,9.53
